Time,TemperatureF,DewpointF,PressureIn,WindDirection,WindDirectionDegrees,WindSpeedMPH,WindSpeedGustMPH,Humidity,HourlyPrecipIn,Conditions,Clouds,dailyrainin,SoftwareType,DateUTC
2013-06-08 00:02:00,65.0,64.0,29.93,SE,142,0.0,0.0,95,0.00,,,0.11,,2013-06-08 05:02:00,
2013-06-08 00:22:00,64.0,63.0,29.93,ENE,70,3.0,4.0,96,0.00,,,0.11,,2013-06-08 05:22:00,
2013-06-08 00:32:00,64.0,63.0,29.93,ESE,107,3.0,3.0,96,0.00,,,0.11,,2013-06-08 05:32:00,
2013-06-08 00:42:00,64.0,63.0,29.93,ESE,107,3.0,3.0,96,0.00,,,0.11,,2013-06-08 05:42:00,
2013-06-08 00:52:00,64.0,63.0,29.93,ESE,121,2.0,2.0,96,0.00,,,0.11,,2013-06-08 05:52:00,
2013-06-08 01:02:00,64.0,63.0,29.94,SSW,197,4.0,4.0,96,0.00,,,0.11,,2013-06-08 06:02:00,
2013-06-08 01:12:00,64.0,63.0,29.94,SSW,197,4.0,4.0,96,0.00,,,0.11,,2013-06-08 06:12:00,
2013-06-08 01:22:00,63.0,62.0,29.93,South,170,1.0,1.0,97,0.00,,,0.11,,2013-06-08 06:22:00,
2013-06-08 01:32:00,63.0,62.0,29.93,SE,135,0.0,0.0,97,0.00,,,0.11,,2013-06-08 06:32:00,
2013-06-08 01:42:00,63.0,62.0,29.93,SE,135,0.0,0.0,97,0.00,,,0.11,,2013-06-08 06:42:00,
2013-06-08 01:52:00,62.0,61.0,29.93,ESE,117,1.0,1.0,97,0.00,,,0.11,,2013-06-08 06:52:00,
2013-06-08 02:02:00,62.0,61.0,29.93,ESE,104,0.0,0.0,98,0.00,,,0.11,,2013-06-08 07:02:00,
2013-06-08 02:12:00,62.0,61.0,29.93,ESE,104,0.0,0.0,98,0.00,,,0.11,,2013-06-08 07:12:00,
2013-06-08 02:22:00,62.0,61.0,29.93,ESE,104,0.0,0.0,98,0.00,,,0.11,,2013-06-08 07:22:00,
2013-06-08 02:32:00,61.0,60.0,29.92,East,94,2.0,2.0,98,0.00,,,0.11,,2013-06-08 07:32:00,
2013-06-08 02:42:00,61.0,61.0,29.91,SE,135,2.0,3.0,99,0.00,,,0.11,,2013-06-08 07:42:00,
2013-06-08 02:52:00,61.0,61.0,29.91,SE,135,2.0,3.0,99,0.00,,,0.11,,2013-06-08 07:52:00,
2013-06-08 03:02:00,61.0,61.0,29.90,ESE,115,4.0,4.0,99,0.00,,,0.11,,2013-06-08 08:02:00,
2013-06-08 03:12:00,61.0,61.0,29.90,ESE,115,4.0,4.0,99,0.00,,,0.11,,2013-06-08 08:12:00,
2013-06-08 03:22:00,61.0,61.0,29.90,SSE,148,3.0,4.0,99,0.00,,,0.11,,2013-06-08 08:22:00,
2013-06-08 03:32:00,61.0,61.0,29.91,WSW,240,3.0,3.0,99,0.00,,,0.11,,2013-06-08 08:32:00,
2013-06-08 03:42:00,61.0,61.0,29.91,WSW,240,3.0,3.0,99,0.00,,,0.11,,2013-06-08 08:42:00,
2013-06-08 03:53:00,60.0,60.0,29.91,West,262,2.0,2.0,99,0.00,,,0.11,,2013-06-08 08:53:00,
2013-06-08 04:02:00,59.0,59.0,29.91,SW,232,2.0,3.0,100,0.00,,,0.11,,2013-06-08 09:02:00,
2013-06-08 04:12:00,59.0,59.0,29.91,SW,232,2.0,3.0,100,0.00,,,0.11,,2013-06-08 09:12:00,
2013-06-08 04:22:00,59.0,59.0,29.91,South,173,0.0,0.0,100,0.00,,,0.11,,2013-06-08 09:22:00,
2013-06-08 04:33:00,59.0,59.0,29.91,SW,226,0.0,1.0,100,0.00,,,0.11,,2013-06-08 09:33:00,
2013-06-08 04:43:00,59.0,59.0,29.91,SW,226,0.0,1.0,100,0.00,,,0.11,,2013-06-08 09:43:00,
2013-06-08 04:53:00,58.0,58.0,29.91,WSW,248,0.0,0.0,100,0.00,,,0.11,,2013-06-08 09:53:00,
2013-06-08 05:02:00,58.0,58.0,29.91,East,86,0.0,0.0,100,0.00,,,0.11,,2013-06-08 10:02:00,
2013-06-08 05:12:00,58.0,58.0,29.91,East,86,0.0,0.0,100,0.00,,,0.11,,2013-06-08 10:12:00,
2013-06-08 05:22:00,58.0,58.0,29.91,East,86,0.0,0.0,100,0.00,,,0.11,,2013-06-08 10:22:00,
2013-06-08 05:33:00,58.0,58.0,29.91,East,86,0.0,0.0,100,0.00,,,0.11,,2013-06-08 10:33:00,
2013-06-08 05:42:00,58.0,58.0,29.91,East,86,0.0,0.0,100,0.00,,,0.11,,2013-06-08 10:42:00,
2013-06-08 05:53:00,58.0,58.0,29.92,WNW,297,2.0,2.0,100,0.00,,,0.11,,2013-06-08 10:53:00,
2013-06-08 06:02:00,58.0,58.0,29.92,WNW,300,0.0,0.0,100,0.00,,,0.11,,2013-06-08 11:02:00,
2013-06-08 06:12:00,58.0,58.0,29.92,WNW,300,0.0,0.0,100,0.00,,,0.11,,2013-06-08 11:12:00,
2013-06-08 06:22:00,58.0,58.0,29.91,NNE,32,0.0,0.0,100,0.00,,,0.11,,2013-06-08 11:22:00,
2013-06-08 06:32:00,58.0,58.0,29.92,NNE,32,0.0,0.0,100,0.00,,,0.11,,2013-06-08 11:32:00,
2013-06-08 06:42:00,58.0,58.0,29.92,NNE,32,0.0,0.0,100,0.00,,,0.11,,2013-06-08 11:42:00,
2013-06-08 06:52:00,58.0,58.0,29.92,NW,308,0.0,0.0,100,0.00,,,0.11,,2013-06-08 11:52:00,
2013-06-08 07:02:00,58.0,58.0,29.93,NW,308,0.0,0.0,100,0.00,,,0.11,,2013-06-08 12:02:00,
2013-06-08 07:12:00,58.0,58.0,29.93,NW,308,0.0,0.0,100,0.00,,,0.11,,2013-06-08 12:12:00,
2013-06-08 07:22:00,59.0,59.0,29.91,ENE,70,0.0,2.0,100,0.00,,,0.11,,2013-06-08 12:22:00,
2013-06-08 07:32:00,59.0,59.0,29.92,SE,131,2.0,3.0,100,0.00,,,0.11,,2013-06-08 12:32:00,
2013-06-08 07:42:00,59.0,59.0,29.92,SE,131,2.0,3.0,100,0.00,,,0.11,,2013-06-08 12:42:00,
2013-06-08 07:52:00,61.0,61.0,29.91,SE,143,3.0,4.0,100,0.00,,,0.11,,2013-06-08 12:52:00,
2013-06-08 08:02:00,65.0,65.0,29.90,SE,128,6.0,6.0,100,0.00,,,0.11,,2013-06-08 13:02:00,
2013-06-08 08:22:00,67.0,67.0,29.89,SSE,149,8.0,8.0,100,0.00,,,0.11,,2013-06-08 13:22:00,
2013-06-08 08:32:00,66.0,66.0,29.89,ESE,107,7.0,7.0,100,0.00,,,0.11,,2013-06-08 13:32:00,
2013-06-08 08:52:00,67.0,67.0,29.90,SSE,155,9.0,9.0,100,0.00,,,0.11,,2013-06-08 13:52:00,
2013-06-08 09:02:00,68.0,68.0,29.89,SE,139,10.0,10.0,100,0.00,,,0.11,,2013-06-08 14:02:00,
2013-06-08 09:22:00,70.0,70.0,29.90,SSE,163,8.0,12.0,100,0.00,,,0.11,,2013-06-08 14:22:00,
2013-06-08 09:32:00,72.0,72.0,29.90,SSE,165,8.0,13.0,99,0.00,,,0.11,,2013-06-08 14:32:00,
2013-06-08 09:52:00,73.0,72.0,29.90,SE,138,9.0,12.0,98,0.00,,,0.11,,2013-06-08 14:52:00,
2013-06-08 10:02:00,73.0,72.0,29.88,SE,143,10.0,10.0,97,0.00,,,0.11,,2013-06-08 15:02:00,
2013-06-08 10:22:00,74.0,73.0,29.88,ESE,104,8.0,8.0,96,0.00,,,0.11,,2013-06-08 15:22:00,
2013-06-08 10:32:00,75.0,74.0,29.87,SSE,160,10.0,12.0,96,0.00,,,0.11,,2013-06-08 15:32:00,
2013-06-08 10:53:00,75.0,74.0,29.87,South,170,8.0,12.0,97,0.00,,,0.11,,2013-06-08 15:53:00,
2013-06-08 11:03:00,77.0,76.0,29.88,SSE,156,9.0,11.0,97,0.00,,,0.11,,2013-06-08 16:03:00,
2013-06-08 11:23:00,78.0,77.0,29.88,South,169,11.0,15.0,97,0.00,,,0.11,,2013-06-08 16:23:00,
2013-06-08 11:32:00,81.0,80.0,29.88,South,169,9.0,9.0,98,0.00,,,0.11,,2013-06-08 16:32:00,
2013-06-08 11:53:00,83.0,82.0,29.88,SSW,201,8.0,8.0,96,0.00,,,0.11,,2013-06-08 16:53:00,
2013-06-08 12:02:00,84.0,83.0,29.88,SSE,149,10.0,10.0,96,0.00,,,0.11,,2013-06-08 17:02:00,
2013-06-08 12:22:00,84.0,83.0,29.88,SSE,149,10.0,10.0,96,0.00,,,0.11,,2013-06-08 17:22:00,
2013-06-08 12:32:00,87.0,85.0,29.87,ESE,122,9.0,11.0,95,0.00,,,0.11,,2013-06-08 17:32:00,
2013-06-08 12:52:00,88.0,86.0,29.86,South,181,7.0,10.0,95,0.00,,,0.11,,2013-06-08 17:52:00,
2013-06-08 13:02:00,88.0,86.0,29.86,SSW,200,6.0,7.0,95,0.00,,,0.11,,2013-06-08 18:02:00,
2013-06-08 13:22:00,91.0,89.0,29.85,SSE,152,6.0,10.0,95,0.00,,,0.11,,2013-06-08 18:22:00,
2013-06-08 13:32:00,92.0,90.0,29.85,SSE,158,8.0,12.0,94,0.00,,,0.11,,2013-06-08 18:32:00,
2013-06-08 13:52:00,90.0,88.0,29.85,East,84,12.0,12.0,95,0.00,,,0.11,,2013-06-08 18:52:00,
2013-06-08 14:02:00,89.0,87.0,29.85,South,172,9.0,9.0,95,0.00,,,0.11,,2013-06-08 19:02:00,
2013-06-08 14:22:00,90.0,88.0,29.84,SSW,212,12.0,12.0,95,0.00,,,0.11,,2013-06-08 19:22:00,
2013-06-08 15:02:00,97.0,89.0,29.81,SW,221,8.0,11.0,79,0.00,,,0.00,,2013-06-08 20:02:00,
2013-06-08 15:22:00,99.0,74.0,29.80,SE,145,8.0,10.0,45,0.00,,,0.00,,2013-06-08 20:22:00,
2013-06-08 15:32:00,98.0,69.0,29.80,SSE,158,8.0,8.0,39,0.00,,,0.00,,2013-06-08 20:32:00,
2013-06-08 15:52:00,97.0,68.0,29.78,SE,124,10.0,10.0,39,0.00,,,0.00,,2013-06-08 20:52:00,
2013-06-08 16:02:00,98.0,68.0,29.78,SE,127,11.0,11.0,38,0.00,,,0.00,,2013-06-08 21:02:00,
2013-06-08 16:22:00,97.0,68.0,29.77,SE,145,8.0,8.0,39,0.00,,,0.00,,2013-06-08 21:22:00,
2013-06-08 16:33:00,95.0,68.0,29.75,SE,135,8.0,11.0,41,0.00,,,0.00,,2013-06-08 21:33:00,
2013-06-08 16:43:00,95.0,68.0,29.75,SE,135,8.0,11.0,41,0.00,,,0.00,,2013-06-08 21:43:00,
2013-06-08 16:53:00,97.0,67.0,29.75,SE,138,8.0,11.0,38,0.00,,,0.00,,2013-06-08 21:53:00,
2013-06-08 17:02:00,97.0,68.0,29.75,SSE,153,5.0,6.0,39,0.00,,,0.00,,2013-06-08 22:02:00,
2013-06-08 17:12:00,99.0,68.0,29.74,South,184,7.0,7.0,37,0.00,,,0.00,,2013-06-08 22:12:00,
2013-06-08 17:22:00,99.0,68.0,29.74,South,184,7.0,7.0,37,0.00,,,0.00,,2013-06-08 22:22:00,
2013-06-08 17:33:00,101.0,68.0,29.73,SSE,148,9.0,9.0,35,0.00,,,0.00,,2013-06-08 22:33:00,
2013-06-08 17:42:00,100.0,67.0,29.73,SW,232,6.0,6.0,35,0.00,,,0.00,,2013-06-08 22:42:00,
2013-06-08 17:52:00,100.0,67.0,29.73,SW,232,6.0,6.0,35,0.00,,,0.00,,2013-06-08 22:52:00,
2013-06-08 18:02:00,99.0,68.0,29.72,SSW,201,5.0,7.0,37,0.00,,,0.00,,2013-06-08 23:02:00,
2013-06-08 18:12:00,96.0,68.0,29.72,South,176,5.0,5.0,40,0.00,,,0.00,,2013-06-08 23:12:00,
2013-06-08 18:22:00,96.0,68.0,29.72,South,176,5.0,5.0,40,0.00,,,0.00,,2013-06-08 23:22:00,
2013-06-08 18:32:00,94.0,68.0,29.72,South,184,8.0,9.0,43,0.00,,,0.00,,2013-06-08 23:32:00,
2013-06-08 18:42:00,94.0,68.0,29.72,South,184,8.0,9.0,43,0.00,,,0.00,,2013-06-08 23:42:00,
2013-06-08 18:52:00,94.0,67.0,29.72,South,179,7.0,7.0,42,0.00,,,0.00,,2013-06-08 23:52:00,
2013-06-08 19:02:00,94.0,67.0,29.72,SSE,150,11.0,11.0,42,0.00,,,0.00,,2013-06-09 00:02:00,
2013-06-08 19:12:00,94.0,67.0,29.72,SSE,150,11.0,11.0,42,0.00,,,0.00,,2013-06-09 00:12:00,
2013-06-08 19:22:00,93.0,67.0,29.72,SSE,155,12.0,13.0,43,0.00,,,0.00,,2013-06-09 00:22:00,
2013-06-08 19:32:00,91.0,67.0,29.72,SSE,155,10.0,10.0,45,0.00,,,0.00,,2013-06-09 00:32:00,
2013-06-08 19:42:00,91.0,67.0,29.72,SSE,155,10.0,10.0,45,0.00,,,0.00,,2013-06-09 00:42:00,
2013-06-08 19:52:00,91.0,67.0,29.72,SSE,165,8.0,11.0,45,0.00,,,0.00,,2013-06-09 00:52:00,
2013-06-08 20:02:00,90.0,66.0,29.72,ESE,121,12.0,12.0,45,0.00,,,0.00,,2013-06-09 01:02:00,
2013-06-08 20:12:00,89.0,65.0,29.72,SSE,156,12.0,12.0,46,0.00,,,0.00,,2013-06-09 01:12:00,
2013-06-08 20:22:00,89.0,65.0,29.72,SSE,156,12.0,12.0,46,0.00,,,0.00,,2013-06-09 01:22:00,
2013-06-08 20:32:00,87.0,65.0,29.72,SE,138,11.0,11.0,49,0.00,,,0.00,,2013-06-09 01:32:00,
2013-06-08 20:42:00,87.0,65.0,29.72,SE,138,11.0,11.0,49,0.00,,,0.00,,2013-06-09 01:42:00,
2013-06-08 20:52:00,84.0,66.0,29.72,ESE,115,9.0,11.0,54,0.00,,,0.00,,2013-06-09 01:52:00,
2013-06-08 21:02:00,82.0,65.0,29.72,SE,131,8.0,10.0,57,0.00,,,0.00,,2013-06-09 02:02:00,
2013-06-08 21:12:00,82.0,65.0,29.72,SE,131,8.0,10.0,57,0.00,,,0.00,,2013-06-09 02:12:00,
2013-06-08 21:22:00,81.0,65.0,29.73,SSE,152,9.0,11.0,59,0.00,,,0.00,,2013-06-09 02:22:00,
2013-06-08 21:32:00,81.0,66.0,29.74,SE,145,6.0,9.0,61,0.00,,,0.00,,2013-06-09 02:32:00,
2013-06-08 21:42:00,81.0,66.0,29.74,SE,145,6.0,9.0,61,0.00,,,0.00,,2013-06-09 02:42:00,
2013-06-08 21:52:00,80.0,66.0,29.75,SSE,160,6.0,8.0,63,0.00,,,0.00,,2013-06-09 02:52:00,
2013-06-08 22:02:00,79.0,67.0,29.75,SE,132,6.0,8.0,66,0.00,,,0.00,,2013-06-09 03:02:00,
2013-06-08 22:12:00,79.0,67.0,29.75,SE,132,6.0,8.0,66,0.00,,,0.00,,2013-06-09 03:12:00,
2013-06-08 22:22:00,78.0,67.0,29.76,SSE,149,6.0,6.0,68,0.00,,,0.00,,2013-06-09 03:22:00,
2013-06-08 22:33:00,78.0,67.0,29.76,South,172,6.0,7.0,70,0.00,,,0.00,,2013-06-09 03:33:00,
2013-06-08 22:43:00,78.0,67.0,29.76,South,172,6.0,7.0,70,0.00,,,0.00,,2013-06-09 03:43:00,
2013-06-08 22:53:00,77.0,67.0,29.77,South,183,5.0,6.0,72,0.00,,,0.00,,2013-06-09 03:53:00,
2013-06-08 23:02:00,76.0,67.0,29.78,South,180,5.0,5.0,74,0.00,,,0.00,,2013-06-09 04:02:00,
2013-06-08 23:12:00,76.0,67.0,29.78,South,180,5.0,5.0,74,0.00,,,0.00,,2013-06-09 04:12:00,
2013-06-08 23:22:00,76.0,68.0,29.78,SE,134,4.0,4.0,76,0.00,,,0.00,,2013-06-09 04:22:00,
2013-06-08 23:32:00,75.0,68.0,29.79,SSE,159,4.0,5.0,78,0.00,,,0.00,,2013-06-09 04:32:00,
2013-06-08 23:42:00,75.0,68.0,29.79,SSE,159,4.0,5.0,78,0.00,,,0.00,,2013-06-09 04:42:00,
2013-06-08 23:53:00,75.0,68.0,29.79,South,186,3.0,3.0,80,0.00,,,0.00,,2013-06-09 04:53:00,